createdAt,value
2018-11-29T00:01:07.074Z,98.75
2018-11-29T00:03:37.303Z,100.00
2018-11-29T00:06:06.893Z,99.56
2018-11-29T00:08:36.407Z,98.86
2018-11-29T00:11:06.808Z,99.17
2018-11-29T00:13:36.370Z,99.66
2018-11-29T00:16:06.053Z,99.62
2018-11-29T00:18:35.654Z,99.92
2018-11-29T00:21:05.063Z,99.47
2018-11-29T00:23:34.726Z,99.42
2018-11-29T00:26:04.280Z,98.93
2018-11-29T00:28:40.960Z,99.51
2018-11-29T00:31:10.289Z,99.71
2018-11-29T00:33:40.501Z,100.00
2018-11-29T00:36:10.293Z,99.86
2018-11-29T00:38:39.991Z,100.00
2018-11-29T00:41:09.896Z,100.00
2018-11-29T00:43:39.366Z,99.97
2018-11-29T00:46:08.805Z,100.00
2018-11-29T00:48:38.755Z,99.33
2018-11-29T00:51:08.077Z,99.05
2018-11-29T00:53:37.471Z,99.39
2018-11-29T00:56:06.863Z,99.73
2018-11-29T00:58:36.295Z,99.71
2018-11-29T01:01:05.808Z,100.00
2018-11-29T01:03:35.323Z,100.00
2018-11-29T01:06:05.252Z,99.55
2018-11-29T01:08:34.664Z,99.01
2018-11-29T01:11:04.383Z,99.32
2018-11-29T01:13:33.752Z,99.58
2018-11-29T01:16:03.649Z,100.00
2018-11-29T01:18:33.220Z,100.00
2018-11-29T01:21:02.704Z,99.96
2018-11-29T01:23:32.262Z,99.07
2018-11-29T01:26:01.756Z,99.90
2018-11-29T01:28:32.356Z,100.00
2018-11-29T01:31:01.796Z,100.00
2018-11-29T01:33:31.235Z,99.22
2018-11-29T01:36:00.713Z,99.04
2018-11-29T01:38:30.266Z,98.83
2018-11-29T01:40:59.799Z,99.58
2018-11-29T01:43:29.561Z,97.44
2018-11-29T01:45:59.802Z,97.51
2018-11-29T01:48:29.422Z,97.43
2018-11-29T01:50:58.850Z,98.58
2018-11-29T01:53:29.260Z,98.66
2018-11-29T01:55:58.757Z,99.26
2018-11-29T01:58:28.134Z,99.09
2018-11-29T02:00:57.633Z,99.77
2018-11-29T02:03:27.246Z,99.66
2018-11-29T02:05:56.578Z,99.42
2018-11-29T02:08:26.016Z,99.47
2018-11-29T02:10:55.993Z,99.57
2018-11-29T02:13:26.444Z,100.00
2018-11-29T02:15:55.727Z,99.80
2018-11-29T02:18:25.184Z,99.05
2018-11-29T02:20:54.479Z,98.64
2018-11-29T02:23:23.912Z,98.18
2018-11-29T02:25:54.707Z,98.93
2018-11-29T02:28:23.995Z,98.42
2018-11-29T02:30:53.808Z,98.62
2018-11-29T02:33:23.369Z,98.69
2018-11-29T02:35:52.787Z,98.46
2018-11-29T02:38:22.174Z,98.59
2018-11-29T02:40:51.682Z,98.78
2018-11-29T02:43:21.151Z,98.00
2018-11-29T02:45:51.638Z,97.74
2018-11-29T02:48:21.553Z,97.72
2018-11-29T02:50:51.148Z,98.37
2018-11-29T02:53:20.593Z,97.83
2018-11-29T02:55:50.099Z,98.39
2018-11-29T02:58:19.528Z,98.43
2018-11-29T03:00:49.377Z,99.21
2018-11-29T03:03:18.766Z,99.42
2018-11-29T03:05:48.259Z,98.09
2018-11-29T03:08:17.713Z,98.58
2018-11-29T03:10:47.418Z,97.29
2018-11-29T03:13:16.677Z,99.74
2018-11-29T03:15:46.650Z,99.03
2018-11-29T03:18:15.832Z,98.45
2018-11-29T03:20:45.523Z,98.60
2018-11-29T03:23:14.750Z,98.11
2018-11-29T03:25:44.000Z,97.49
2018-11-29T03:28:13.368Z,98.25
2018-11-29T03:30:42.892Z,98.74
2018-11-29T03:33:12.919Z,99.07
2018-11-29T03:35:44.546Z,98.67
2018-11-29T03:38:11.745Z,99.26
2018-11-29T03:40:41.217Z,98.60
2018-11-29T03:43:10.751Z,98.59
2018-11-29T03:45:40.704Z,98.06
2018-11-29T03:48:11.493Z,98.34
2018-11-29T03:50:42.655Z,98.32
2018-11-29T03:53:12.217Z,99.08
2018-11-29T03:55:42.237Z,98.46
2018-11-29T03:58:11.589Z,98.19
2018-11-29T04:00:40.939Z,97.84
2018-11-29T04:03:12.122Z,98.71
2018-11-29T04:05:41.424Z,99.41
2018-11-29T04:08:11.252Z,99.52
2018-11-29T04:10:41.214Z,99.23
2018-11-29T04:13:10.812Z,98.90
2018-11-29T04:15:40.183Z,98.78
2018-11-29T04:18:09.508Z,98.35
2018-11-29T04:20:38.763Z,98.11
2018-11-29T04:23:09.788Z,98.68
2018-11-29T04:25:39.790Z,98.90
2018-11-29T04:28:09.187Z,99.22
2018-11-29T04:30:38.561Z,99.04
2018-11-29T04:33:08.880Z,99.74
2018-11-29T04:35:38.285Z,99.49
2018-11-29T04:38:08.493Z,100.00
2018-11-29T04:40:38.162Z,99.95
2018-11-29T04:43:07.819Z,100.00
2018-11-29T04:47:44.819Z,100.00
2018-11-29T04:50:14.371Z,100.00
2018-11-29T04:52:43.676Z,100.00
2018-11-29T04:55:13.129Z,99.41
2018-11-29T04:57:43.061Z,97.88
2018-11-29T05:00:17.014Z,98.84
2018-11-29T05:02:46.569Z,98.69
2018-11-29T05:05:16.179Z,98.25
2018-11-29T05:07:45.877Z,98.63
2018-11-29T05:10:18.316Z,98.91
2018-11-29T05:12:48.576Z,98.55
2018-11-29T05:15:18.244Z,99.13
2018-11-29T05:17:47.685Z,99.36
2018-11-29T05:20:17.950Z,100.00
2018-11-29T05:22:47.913Z,99.96
2018-11-29T05:25:17.264Z,99.21
2018-11-29T05:27:46.441Z,99.30
2018-11-29T05:30:16.514Z,98.58
2018-11-29T05:32:46.153Z,99.40
2018-11-29T05:35:15.369Z,100.00
2018-11-29T05:37:44.851Z,100.00
2018-11-29T05:40:14.871Z,100.00
2018-11-29T05:42:44.488Z,99.15
2018-11-29T05:45:13.866Z,98.72
2018-11-29T05:47:43.292Z,98.67
2018-11-29T05:50:13.190Z,99.01
2018-11-29T05:52:43.125Z,98.31
2018-11-29T05:55:13.094Z,98.85
2018-11-29T05:57:42.845Z,99.60
2018-11-29T06:00:14.281Z,99.25
2018-11-29T06:02:44.101Z,99.62
2018-11-29T06:05:14.946Z,99.03
2018-11-29T06:07:45.272Z,98.69
2018-11-29T06:10:18.646Z,97.57
2018-11-29T06:12:48.591Z,98.58
2018-11-29T06:15:18.252Z,98.94
2018-11-29T06:17:47.682Z,99.56
2018-11-29T06:20:19.944Z,100.00
2018-11-29T06:22:51.270Z,99.92
2018-11-29T06:25:21.035Z,99.29
2018-11-29T06:27:50.865Z,100.00
2018-11-29T06:30:22.169Z,100.00
2018-11-29T06:32:54.970Z,100.00
2018-11-29T06:35:24.509Z,100.00
2018-11-29T06:37:54.949Z,99.48
2018-11-29T06:40:25.651Z,98.92
2018-11-29T06:42:56.980Z,97.97
2018-11-29T06:45:27.570Z,97.88
2018-11-29T06:47:58.048Z,97.78
2018-11-29T06:50:33.414Z,98.53
2018-11-29T06:53:05.151Z,98.28
2018-11-29T06:55:34.722Z,99.32
2018-11-29T06:58:05.217Z,100.00
2018-11-29T07:00:35.130Z,99.85
2018-11-29T07:03:04.701Z,99.34
2018-11-29T07:05:34.117Z,99.09
2018-11-29T07:08:04.898Z,97.11
2018-11-29T07:10:35.695Z,93.68
2018-11-29T07:13:06.417Z,87.26
2018-11-29T07:15:35.706Z,82.88
2018-11-29T07:18:06.165Z,84.04
2018-11-29T07:20:35.581Z,82.38
2018-11-29T07:23:05.168Z,76.57
2018-11-29T07:25:34.587Z,69.23
2018-11-29T07:28:03.937Z,65.28
2018-11-29T07:30:33.493Z,63.66
2018-11-29T07:33:02.911Z,61.79
2018-11-29T07:35:32.348Z,66.10
2018-11-29T07:38:01.741Z,67.84
2018-11-29T07:40:31.323Z,64.98
2018-11-29T07:43:00.819Z,59.66
2018-11-29T07:45:30.241Z,56.78
2018-11-29T07:47:59.646Z,60.01
2018-11-29T07:50:29.084Z,64.76
2018-11-29T07:52:58.576Z,64.97
2018-11-29T07:55:30.642Z,69.05
2018-11-29T07:58:00.062Z,75.15
2018-11-29T08:00:30.583Z,75.75
2018-11-29T08:03:03.108Z,72.79
2018-11-29T08:05:33.600Z,77.06
2018-11-29T08:08:03.176Z,77.51
2018-11-29T08:10:32.534Z,79.14
2018-11-29T08:13:08.246Z,75.53
2018-11-29T08:15:42.204Z,77.02
2018-11-29T08:18:13.789Z,76.57
2018-11-29T08:20:44.820Z,75.99
2018-11-29T08:23:14.154Z,75.28
2018-11-29T08:25:44.069Z,73.60
2018-11-29T08:28:14.282Z,71.97
2018-11-29T08:30:45.328Z,69.73
2018-11-29T08:33:14.860Z,71.29
2018-11-29T08:35:44.988Z,72.71
2018-11-29T08:38:14.527Z,72.88
2018-11-29T08:40:45.157Z,70.13
2018-11-29T08:43:14.267Z,67.11
2018-11-29T08:45:43.927Z,72.34
2018-11-29T08:48:13.242Z,72.62
2018-11-29T08:50:43.636Z,70.89
2018-11-29T08:53:12.996Z,66.96
2018-11-29T08:55:42.610Z,66.53
2018-11-29T08:58:12.982Z,64.00
2018-11-29T09:00:45.732Z,64.31
2018-11-29T09:03:16.088Z,61.44
2018-11-29T09:05:46.725Z,61.75
2018-11-29T09:08:16.801Z,63.06
2018-11-29T09:10:46.373Z,62.41
2018-11-29T09:13:15.820Z,61.25
2018-11-29T09:15:46.219Z,62.83
2018-11-29T09:18:15.621Z,60.43
2018-11-29T09:20:48.196Z,63.78
2018-11-29T09:23:17.700Z,61.60
2018-11-29T09:25:47.433Z,61.23
2018-11-29T09:28:18.524Z,60.68
2018-11-29T09:30:47.979Z,59.33
2018-11-29T09:33:17.973Z,59.29
2018-11-29T09:35:50.714Z,55.50
2018-11-29T09:38:20.185Z,59.29
2018-11-29T09:40:50.794Z,58.48
2018-11-29T09:43:20.479Z,55.16
2018-11-29T09:45:50.197Z,56.32
2018-11-29T09:48:20.408Z,55.04
2018-11-29T09:50:50.334Z,57.71
2018-11-29T09:53:21.628Z,55.93
2018-11-29T09:55:51.310Z,57.08
2018-11-29T09:58:20.764Z,57.89
2018-11-29T10:00:50.369Z,56.19
2018-11-29T10:03:20.092Z,54.59
2018-11-29T10:05:55.343Z,56.11
2018-11-29T10:08:26.227Z,57.16
2018-11-29T10:10:56.218Z,58.39
2018-11-29T10:13:25.750Z,57.80
2018-11-29T10:15:55.194Z,60.92
2018-11-29T10:18:24.502Z,58.52
2018-11-29T10:20:55.345Z,55.60
2018-11-29T10:23:26.784Z,54.61
2018-11-29T10:25:56.214Z,58.44
2018-11-29T10:28:25.994Z,60.06
2018-11-29T10:30:57.500Z,58.43
2018-11-29T10:33:29.130Z,57.07
2018-11-29T10:36:01.095Z,56.80
2018-11-29T10:38:31.062Z,56.98
2018-11-29T10:41:01.538Z,57.49
2018-11-29T10:43:31.108Z,57.36
2018-11-29T10:46:02.187Z,57.52
2018-11-29T10:48:32.743Z,58.16
2018-11-29T10:51:03.042Z,57.89
2018-11-29T10:53:36.961Z,57.24
2018-11-29T10:56:02.324Z,58.09
2018-11-29T10:58:31.676Z,58.93
2018-11-29T11:01:06.146Z,56.38
2018-11-29T11:03:36.117Z,57.05
2018-11-29T11:06:05.609Z,59.72
2018-11-29T11:08:36.249Z,57.65
2018-11-29T11:11:06.625Z,58.58
2018-11-29T11:13:37.082Z,58.49
2018-11-29T11:16:06.918Z,60.16
2018-11-29T11:18:37.102Z,60.51
2018-11-29T11:21:07.474Z,55.39
2018-11-29T11:23:37.658Z,56.32
2018-11-29T11:26:07.650Z,56.90
2018-11-29T11:28:37.696Z,57.96
2018-11-29T11:31:07.053Z,56.33
2018-11-29T11:33:38.022Z,57.39
2018-11-29T11:36:07.488Z,53.44
2018-11-29T11:38:37.978Z,55.89
2018-11-29T11:41:07.666Z,55.76
2018-11-29T11:43:37.001Z,55.50
2018-11-29T11:46:06.400Z,54.13
2018-11-29T11:48:36.836Z,55.79
2018-11-29T11:51:10.458Z,53.50
2018-11-29T11:53:39.904Z,54.66
2018-11-29T11:56:09.361Z,55.19
2018-11-29T11:58:39.026Z,55.33
2018-11-29T12:01:09.212Z,53.48
2018-11-29T12:03:38.591Z,53.66
2018-11-29T12:06:08.185Z,53.05
2018-11-29T12:08:37.665Z,55.03
2018-11-29T12:11:08.662Z,57.80
2018-11-29T12:13:38.388Z,56.12
2018-11-29T12:16:09.557Z,54.64
2018-11-29T12:18:41.039Z,55.28
2018-11-29T12:21:14.086Z,55.74
2018-11-29T12:23:43.575Z,54.76
2018-11-29T12:26:13.543Z,54.78
2018-11-29T12:28:42.906Z,57.67
2018-11-29T12:31:12.407Z,58.35
2018-11-29T12:33:41.944Z,57.70
2018-11-29T12:36:13.123Z,55.97
2018-11-29T12:38:46.998Z,55.88
2018-11-29T12:41:17.029Z,56.98
2018-11-29T12:43:46.422Z,58.06
2018-11-29T12:46:15.903Z,56.82
2018-11-29T12:48:47.191Z,57.17
2018-11-29T12:51:17.867Z,56.48
2018-11-29T12:53:47.478Z,57.83
2018-11-29T12:56:16.905Z,56.17
2018-11-29T12:58:49.071Z,56.83
2018-11-29T13:01:17.762Z,57.43
2018-11-29T13:03:48.958Z,58.12
2018-11-29T13:06:19.333Z,59.00
2018-11-29T13:08:49.426Z,57.57
2018-11-29T13:11:18.956Z,58.38
2018-11-29T13:13:49.642Z,60.69
2018-11-29T13:16:19.395Z,62.37
2018-11-29T13:18:49.851Z,64.39
2018-11-29T13:21:19.332Z,64.84
2018-11-29T13:23:49.031Z,65.67
2018-11-29T13:26:20.052Z,65.14
2018-11-29T13:28:49.561Z,65.14
2018-11-29T13:31:19.063Z,66.09
2018-11-29T13:33:49.161Z,64.84
2018-11-29T13:36:19.365Z,64.00
2018-11-29T13:38:48.929Z,64.88
2018-11-29T13:41:18.756Z,63.79
2018-11-29T13:43:49.715Z,64.04
2018-11-29T13:46:19.396Z,65.50
2018-11-29T13:48:48.862Z,66.47
2018-11-29T13:51:19.105Z,66.28
2018-11-29T13:53:48.687Z,65.82
2018-11-29T13:56:19.007Z,68.04
2018-11-29T13:58:48.725Z,67.21
2018-11-29T14:01:18.044Z,65.69
2018-11-29T14:03:50.110Z,67.73
2018-11-29T14:06:19.704Z,66.48
2018-11-29T14:08:49.505Z,66.29
2018-11-29T14:11:19.820Z,68.58
2018-11-29T14:13:49.493Z,71.80
2018-11-29T14:16:21.150Z,72.01
2018-11-29T14:18:51.112Z,72.97
2018-11-29T14:21:21.600Z,74.95
2018-11-29T14:23:51.264Z,75.12
2018-11-29T14:26:20.692Z,72.29
2018-11-29T14:28:50.623Z,74.25
2018-11-29T14:31:20.154Z,72.71
2018-11-29T14:33:52.381Z,75.27
2018-11-29T14:36:23.048Z,73.56
2018-11-29T14:38:52.444Z,71.93
2018-11-29T14:41:22.050Z,73.70
2018-11-29T14:43:51.446Z,73.61
2018-11-29T14:46:21.782Z,73.98
2018-11-29T14:48:51.499Z,74.88
2018-11-29T14:51:21.108Z,75.60
2018-11-29T14:53:50.626Z,74.03
2018-11-29T14:56:20.649Z,74.27
2018-11-29T14:58:50.411Z,74.80
2018-11-29T15:01:19.803Z,77.22
2018-11-29T15:03:49.553Z,77.09
2018-11-29T15:06:19.012Z,76.67
2018-11-29T15:08:48.968Z,78.33
2018-11-29T15:11:18.909Z,77.63
2018-11-29T15:13:48.962Z,78.92
2018-11-29T15:16:19.466Z,80.76
2018-11-29T15:18:49.020Z,80.13
2018-11-29T15:21:18.791Z,81.39
2018-11-29T15:23:48.798Z,82.37
2018-11-29T15:26:18.475Z,83.00
2018-11-29T15:28:47.808Z,83.92
2018-11-29T15:31:17.511Z,83.59
2018-11-29T15:33:47.407Z,82.86
2018-11-29T15:36:18.807Z,81.07
2018-11-29T15:38:49.814Z,81.98
2018-11-29T15:41:19.125Z,82.81
2018-11-29T15:43:48.379Z,82.71
2018-11-29T15:46:17.915Z,85.49
2018-11-29T15:48:47.317Z,86.89
2018-11-29T15:51:18.542Z,85.94
2018-11-29T15:53:47.960Z,86.39
2018-11-29T15:56:17.344Z,86.47
2018-11-29T15:58:46.977Z,88.04
2018-11-29T16:01:17.005Z,88.99
2018-11-29T16:03:47.494Z,88.93
2018-11-29T16:06:17.582Z,89.01
2018-11-29T16:08:48.928Z,90.78
2018-11-29T16:11:18.662Z,90.49
2018-11-29T16:13:48.119Z,92.35
2018-11-29T16:16:19.506Z,91.58
2018-11-29T16:18:51.122Z,91.44
2018-11-29T16:21:24.317Z,90.92
2018-11-29T16:23:53.760Z,91.48
2018-11-29T16:26:23.589Z,91.92
2018-11-29T16:28:53.005Z,92.58
2018-11-29T16:31:22.489Z,93.14
2018-11-29T16:33:52.073Z,92.90
2018-11-29T16:36:22.577Z,94.64
2018-11-29T16:38:52.087Z,95.00
2018-11-29T16:41:21.667Z,96.10
2018-11-29T16:43:51.185Z,95.75
2018-11-29T16:46:20.509Z,94.15
2018-11-29T16:48:49.903Z,94.40
2018-11-29T16:51:20.364Z,94.27
2018-11-29T16:53:50.409Z,93.15
2018-11-29T16:56:19.870Z,94.78
2018-11-29T16:58:49.635Z,95.02
2018-11-29T17:01:19.587Z,94.70
2018-11-29T17:03:50.706Z,94.49
2018-11-29T17:06:20.058Z,93.54
2018-11-29T17:08:49.407Z,94.44
2018-11-29T17:11:19.271Z,94.47
2018-11-29T17:13:48.915Z,94.56
2018-11-29T17:16:18.327Z,93.37
2018-11-29T17:18:47.730Z,94.16
2018-11-29T17:21:17.179Z,94.17
2018-11-29T17:23:46.913Z,96.47
2018-11-29T17:26:16.719Z,96.47
2018-11-29T17:28:46.312Z,96.67
2018-11-29T17:31:16.447Z,95.88
2018-11-29T17:33:45.936Z,94.05
2018-11-29T17:36:15.638Z,91.26
2018-11-29T17:38:46.252Z,90.84
2018-11-29T17:41:16.008Z,88.11
2018-11-29T17:43:46.050Z,88.01
2018-11-29T17:46:16.773Z,89.67
2018-11-29T17:48:46.363Z,92.66
2018-11-29T17:51:16.417Z,93.16
2018-11-29T17:53:45.991Z,93.61
2018-11-29T17:56:15.441Z,94.96
2018-11-29T17:58:45.711Z,94.64
2018-11-29T18:01:15.838Z,95.61
2018-11-29T18:03:45.185Z,95.79
2018-11-29T18:06:14.815Z,96.68
2018-11-29T18:08:44.423Z,95.75
2018-11-29T18:11:14.232Z,96.35
2018-11-29T18:13:45.809Z,96.20
2018-11-29T18:16:17.027Z,97.46
2018-11-29T18:18:46.761Z,97.19
2018-11-29T18:21:16.688Z,97.14
2018-11-29T18:23:49.100Z,96.68
2018-11-29T18:26:20.694Z,97.19
2018-11-29T18:28:50.387Z,97.80
2018-11-29T18:31:20.902Z,98.27
2018-11-29T18:33:51.784Z,98.20
2018-11-29T18:36:23.682Z,98.73
2018-11-29T18:38:53.636Z,98.18
2018-11-29T18:41:23.296Z,98.80
2018-11-29T18:43:52.974Z,98.02
2018-11-29T18:46:23.518Z,98.30
2018-11-29T18:48:55.430Z,98.33
2018-11-29T18:51:26.435Z,98.44
2018-11-29T18:53:55.800Z,98.89
2018-11-29T18:56:25.832Z,97.86
2018-11-29T18:58:55.658Z,97.07
2018-11-29T19:01:27.732Z,95.56
2018-11-29T19:03:57.725Z,96.83
2018-11-29T19:06:28.787Z,96.65
2018-11-29T19:09:02.166Z,96.94
2018-11-29T19:11:33.967Z,96.71
2018-11-29T19:14:03.546Z,96.11
2018-11-29T19:16:33.936Z,95.06
2018-11-29T19:19:03.400Z,94.38
2018-11-29T19:21:34.038Z,96.70
2018-11-29T19:24:04.305Z,96.15
2018-11-29T19:26:34.791Z,96.10
2018-11-29T19:29:07.356Z,96.66
2018-11-29T19:31:37.732Z,96.57
2018-11-29T19:34:09.294Z,96.97
2018-11-29T19:36:39.371Z,96.11
2018-11-29T19:39:10.233Z,96.54
2018-11-29T19:41:42.287Z,96.98
2018-11-29T19:44:13.639Z,97.49
2018-11-29T19:53:35.906Z,98.53
2018-11-29T19:56:06.793Z,97.76
2018-11-29T19:58:40.447Z,96.70
2018-11-29T20:01:10.538Z,97.72
2018-11-29T20:03:41.923Z,97.82
2018-11-29T20:06:12.180Z,97.60
2018-11-29T20:08:42.987Z,97.21
2018-11-29T20:11:13.757Z,97.56
2018-11-29T20:13:44.295Z,97.73
2018-11-29T20:16:14.303Z,96.67
2018-11-29T20:18:43.796Z,97.43
2018-11-29T20:21:14.129Z,97.89
2018-11-29T20:23:45.325Z,98.59
2018-11-29T20:26:14.949Z,99.22
2018-11-29T20:28:47.020Z,99.32
2018-11-29T20:31:18.420Z,98.93
2018-11-29T20:33:50.564Z,98.47
2018-11-29T20:36:21.107Z,96.88
2018-11-29T20:38:52.195Z,97.74
2018-11-29T20:41:21.847Z,97.78
2018-11-29T20:43:51.162Z,97.79
2018-11-29T20:46:21.934Z,98.59
2018-11-29T20:48:53.409Z,99.07
2018-11-29T20:51:24.615Z,98.10
2018-11-29T20:53:54.299Z,99.14
2018-11-29T20:56:25.118Z,100.00
2018-11-29T20:58:55.893Z,98.73
2018-11-29T21:01:25.565Z,93.71
2018-11-29T21:03:55.393Z,96.22
2018-11-29T21:06:27.273Z,98.32
2018-11-29T21:08:57.390Z,98.53
2018-11-29T21:11:29.755Z,98.51
2018-11-29T21:14:00.820Z,98.65
2018-11-29T21:16:31.450Z,98.63
2018-11-29T21:19:00.987Z,98.70
2018-11-29T21:21:34.180Z,98.67
2018-11-29T21:24:04.607Z,98.91
2018-11-29T21:26:34.820Z,98.79
2018-11-29T21:29:04.633Z,99.16
2018-11-29T21:31:34.098Z,99.35
2018-11-29T21:34:05.428Z,99.74
2018-11-29T21:36:35.468Z,100.00
2018-11-29T21:39:06.403Z,99.12
2018-11-29T21:41:35.993Z,99.20
2018-11-29T21:44:05.300Z,98.54
2018-11-29T21:46:35.809Z,98.57
2018-11-29T21:49:05.588Z,99.44
2018-11-29T21:51:35.060Z,99.17
2018-11-29T21:54:05.364Z,98.71
2018-11-29T21:56:34.857Z,98.60
2018-11-29T21:59:05.218Z,99.32
2018-11-29T22:01:36.463Z,99.49
2018-11-29T22:04:05.975Z,99.39
2018-11-29T22:06:35.219Z,100.00
2018-11-29T22:09:05.763Z,100.00
2018-11-29T22:11:36.385Z,100.00
2018-11-29T22:14:05.703Z,100.00
2018-11-29T22:16:35.736Z,99.52
2018-11-29T22:19:05.090Z,100.00
2018-11-29T22:21:35.424Z,100.00
2018-11-29T22:24:05.004Z,98.37
2018-11-29T22:26:34.557Z,99.50
2018-11-29T22:29:05.293Z,100.00
2018-11-29T22:31:35.697Z,100.00
2018-11-29T22:34:05.840Z,100.00
2018-11-29T22:36:36.562Z,100.00
2018-11-29T22:39:09.277Z,100.00
2018-11-29T22:41:39.827Z,100.00
2018-11-29T22:44:09.268Z,99.86
2018-11-29T22:46:38.766Z,100.00
2018-11-29T22:49:09.214Z,100.00
2018-11-29T22:51:39.421Z,100.00
2018-11-29T22:54:11.427Z,100.00
2018-11-29T22:56:41.606Z,99.58
2018-11-29T22:59:13.103Z,98.96
2018-11-29T23:01:43.420Z,99.98
2018-11-29T23:04:13.260Z,99.76
2018-11-29T23:06:44.309Z,99.84
2018-11-29T23:09:15.047Z,100.00
2018-11-29T23:11:45.261Z,100.00
2018-11-29T23:14:15.377Z,100.00
2018-11-29T23:16:45.026Z,100.00
2018-11-29T23:19:16.481Z,100.00
2018-11-29T23:21:45.941Z,99.36
2018-11-29T23:24:15.075Z,99.84
2018-11-29T23:26:44.541Z,99.60
2018-11-29T23:29:13.980Z,99.77
2018-11-29T23:31:43.584Z,98.91
2018-11-29T23:34:12.834Z,99.00
2018-11-29T23:36:42.091Z,99.88
2018-11-29T23:39:12.089Z,98.26
2018-11-29T23:41:41.913Z,98.19
2018-11-29T23:44:11.198Z,99.61
2018-11-29T23:46:40.740Z,99.17
2018-11-29T23:49:10.130Z,99.69
2018-11-29T23:51:39.669Z,99.69
2018-11-29T23:54:10.027Z,99.92
2018-11-29T23:56:39.305Z,100.00
2018-11-29T23:59:08.761Z,100.00
